Time;durP1;ratioP1;P1;durP2;ratioP2;P2;SDS_P1;SDS_P2;PMS_P1;PMS_P2;Temp;Humidity;BMP_temperature;BMP_pressure;BME280_temperature;BME280_humidity;BME280_pressure;Samples;Min_cycle;Max_cycle;Signal;HPM_P1;HPM_P2
2021/11/17 02:26:18;;;;;;;0.20;0.20;;;20.30;30.30;20.80;94107.00;;;;10353328;28;45658;-62
2021/11/17 02:31:53;;;;;;;0.50;0.30;;;20.40;30.40;20.80;94105.00;;;;10352796;28;45202;-61
2021/11/17 02:37:19;;;;;;;0.43;0.30;;;20.30;30.40;20.80;94112.00;;;;10331837;28;47255;-61
2021/11/17 02:42:47;;;;;;;0.55;0.20;;;20.30;30.30;20.80;94115.00;;;;10352609;28;45396;-61
2021/11/17 02:48:23;;;;;;;0.30;0.20;;;20.30;30.30;20.80;94113.00;;;;10359650;28;45385;-61
2021/11/17 02:53:58;;;;;;;0.40;0.20;;;20.30;30.30;20.80;94114.00;;;;10379705;28;46387;-61
2021/11/17 02:59:41;;;;;;;0.20;0.20;;;20.30;30.30;20.80;94107.00;;;;10392966;28;45139;-61
2021/11/17 03:05:28;;;;;;;0.30;0.20;;;20.30;30.20;20.80;94106.00;;;;10392747;28;45602;-61
2021/11/17 03:10:47;;;;;;;0.20;0.20;;;20.30;30.20;20.80;94105.00;;;;10387441;28;46249;-61
2021/11/17 03:16:28;;;;;;;0.40;0.20;;;20.30;30.20;20.80;94122.00;;;;10392520;28;45430;-61
2021/11/17 03:21:41;;;;;;;0.20;0.20;;;20.30;30.20;20.80;94120.00;;;;10391704;28;45863;-61
2021/11/17 03:27:24;;;;;;;0.20;0.20;;;20.20;30.10;20.80;94115.00;;;;10375849;28;47293;-61
2021/11/17 03:32:37;;;;;;;0.20;0.20;;;20.30;30.20;20.80;94119.00;;;;10391085;28;47145;-60
2021/11/17 03:37:56;;;;;;;0.17;0.17;;;20.30;30.20;20.80;94117.00;;;;10375074;28;46929;-60
2021/11/17 03:43:25;;;;;;;0.30;0.20;;;20.30;30.10;20.80;94120.00;;;;10390932;28;46950;-60
2021/11/17 03:49:06;;;;;;;0.13;0.10;;;20.30;30.20;20.80;94119.00;;;;10379661;28;45412;-60
2021/11/17 03:54:32;;;;;;;0.10;0.10;;;20.30;30.20;20.80;94116.00;;;;10349777;28;47192;-60
2021/11/17 04:00:17;;;;;;;0.20;0.20;;;20.20;30.10;20.80;94123.00;;;;10335436;28;46971;-60
2021/11/17 04:05:30;;;;;;;0.20;0.20;;;20.20;30.10;20.80;94114.00;;;;10349881;28;46734;-60
2021/11/17 04:11:07;;;;;;;0.20;0.20;;;20.30;30.20;20.70;94119.00;;;;10333659;28;47020;-60
2021/11/17 04:16:11;;;;;;;0.10;0.10;;;20.20;30.10;20.70;94104.00;;;;10349403;28;47062;-60
2021/11/17 04:21:29;;;;;;;0.10;0.10;;;20.20;30.10;20.70;94108.00;;;;10367284;28;45492;-62
2021/11/17 04:27:00;;;;;;;0.20;0.20;;;20.20;30.10;20.70;94110.00;;;;10390017;28;47437;-61
2021/11/17 04:32:24;;;;;;;0.30;0.20;;;20.20;30.00;20.70;94116.00;;;;10391142;28;45422;-61
2021/11/17 04:37:53;;;;;;;0.20;0.15;;;20.20;30.10;20.70;94123.00;;;;10391139;28;45723;-61
2021/11/17 04:43:28;;;;;;;0.00;0.00;;;20.20;30.00;20.70;94113.00;;;;10375820;28;48136;-60
2021/11/17 04:48:35;;;;;;;0.13;0.10;;;20.20;30.10;20.70;94120.00;;;;10389478;28;45207;-61
2021/11/17 04:53:38;;;;;;;0.10;0.10;;;20.20;30.00;20.70;94112.00;;;;10390646;28;45178;-60
2021/11/17 04:58:53;;;;;;;0.10;0.10;;;20.20;30.10;20.70;94119.00;;;;10397788;28;45555;-60
2021/11/17 05:04:25;;;;;;;0.10;0.10;;;20.20;30.00;20.70;94133.00;;;;10398036;28;46370;-61
2021/11/17 05:09:55;;;;;;;0.10;0.10;;;20.20;30.00;20.80;94126.00;;;;10381961;28;45210;-61
2021/11/17 05:15:20;;;;;;;0.00;0.00;;;20.30;30.10;20.80;94135.00;;;;10382415;28;45148;-61
2021/11/17 05:20:34;;;;;;;0.03;0.03;;;20.30;30.10;20.90;94137.00;;;;10386817;28;45464;-61
2021/11/17 05:25:49;;;;;;;0.10;0.10;;;20.40;30.10;20.90;94127.00;;;;10356017;28;45598;-61
2021/11/17 05:31:12;;;;;;;0.10;0.10;;;20.40;30.00;20.90;94126.00;;;;10355966;28;45133;-61
2021/11/17 05:36:44;;;;;;;0.22;0.10;;;20.40;30.00;21.00;94135.00;;;;10354780;28;45430;-61
2021/11/17 05:42:04;;;;;;;0.15;0.10;;;20.50;30.00;21.00;94142.00;;;;10340074;28;48249;-61
2021/11/17 05:47:20;;;;;;;0.22;0.20;;;20.50;30.00;21.00;94147.00;;;;10339378;28;45186;-61
2021/11/17 05:53:10;;;;;;;0.30;0.20;;;20.50;30.00;21.10;94146.00;;;;10379438;28;45592;-61
2021/11/17 05:58:29;;;;;;;0.20;0.10;;;20.60;30.00;21.10;94143.00;;;;10382131;28;45341;-61
2021/11/17 06:03:36;;;;;;;0.32;0.20;;;20.60;30.00;21.10;94151.00;;;;10393875;28;46874;-61
2021/11/17 06:08:36;;;;;;;0.15;0.00;;;20.60;30.00;21.10;94153.00;;;;10395287;28;45244;-61
2021/11/17 06:13:37;;;;;;;0.10;0.10;;;20.60;29.80;21.10;94161.00;;;;10452794;22;45604;-64
2021/11/17 06:18:41;;;;;;;0.30;0.10;;;20.60;29.80;21.20;94176.00;;;;10398574;28;46149;-63
2021/11/17 06:23:53;;;;;;;0.30;0.10;;;20.70;29.80;21.20;94179.00;;;;10377773;28;48246;-64
2021/11/17 06:28:58;;;;;;;0.20;0.10;;;20.70;29.80;21.20;94185.00;;;;10394377;28;45434;-64
2021/11/17 06:33:59;;;;;;;0.17;0.00;;;20.70;29.70;21.20;94188.00;;;;10377943;28;47136;-65
2021/11/17 06:39:00;;;;;;;0.10;0.10;;;20.70;29.70;21.20;94196.00;;;;10394648;28;46374;-64
2021/11/17 06:44:01;;;;;;;0.10;0.10;;;20.80;29.70;21.20;94178.00;;;;10393571;28;45312;-64
2021/11/17 06:49:04;;;;;;;0.05;0.05;;;20.70;29.70;21.30;94214.00;;;;10409998;28;46997;-64
2021/11/17 06:54:05;;;;;;;0.10;0.10;;;20.70;29.60;21.30;94226.00;;;;10435439;28;46312;-63
2021/11/17 06:59:05;;;;;;;0.08;0.08;;;20.70;29.60;21.20;94217.00;;;;10436644;28;46401;-63
2021/11/17 07:04:07;;;;;;;0.17;0.10;;;20.70;29.50;21.30;94234.00;;;;10435549;28;45105;-63
2021/11/17 07:09:09;;;;;;;0.10;0.10;;;20.70;29.60;21.30;94235.00;;;;10434894;28;45249;-63
2021/11/17 07:14:11;;;;;;;0.08;0.08;;;20.80;29.60;21.30;94250.00;;;;10434982;28;45397;-63
2021/11/17 07:19:12;;;;;;;0.40;0.20;;;20.80;29.60;21.30;94246.00;;;;10434256;28;45501;-63
2021/11/17 07:24:12;;;;;;;0.30;0.20;;;20.80;29.60;21.30;94244.00;;;;10434657;28;45385;-63
2021/11/17 07:29:13;;;;;;;0.38;0.20;;;20.80;29.60;21.30;94248.00;;;;10435493;28;46477;-63
2021/11/17 07:34:15;;;;;;;0.20;0.17;;;20.80;29.60;21.30;94254.00;;;;10434030;28;45254;-64
2021/11/17 07:39:16;;;;;;;0.40;0.20;;;20.80;29.60;21.40;94275.00;;;;10434164;28;45314;-63
2021/11/17 07:44:21;;;;;;;0.13;0.13;;;20.90;29.60;21.40;94274.00;;;;10429600;28;45184;-63
2021/11/17 07:49:23;;;;;;;0.10;0.10;;;20.80;29.50;21.40;94271.00;;;;10432996;28;48049;-63
2021/11/17 07:54:27;;;;;;;0.38;0.13;;;20.90;29.60;21.40;94273.00;;;;10433105;28;45612;-63
2021/11/17 07:59:29;;;;;;;0.45;0.20;;;20.90;29.50;21.40;94295.00;;;;10433254;28;45498;-63
2021/11/17 08:04:34;;;;;;;0.30;0.20;;;20.90;29.50;21.40;94302.00;;;;10432959;28;48546;-63
2021/11/17 08:09:35;;;;;;;0.17;0.13;;;20.90;29.50;21.40;94300.00;;;;10425922;28;46345;-64
2021/11/17 08:14:36;;;;;;;0.10;0.10;;;20.90;29.60;21.40;94313.00;;;;10391396;28;46981;-63
2021/11/17 08:19:37;;;;;;;1.00;0.22;;;20.90;29.50;21.40;94323.00;;;;10390926;28;47099;-64
2021/11/17 08:24:39;;;;;;;0.10;0.10;;;20.90;29.60;21.40;94315.00;;;;10391833;28;45363;-66
2021/11/17 08:29:40;;;;;;;0.20;0.20;;;20.90;29.60;21.40;94314.00;;;;10394992;28;46218;-63
2021/11/17 08:34:41;;;;;;;0.52;0.15;;;20.90;29.20;21.30;94327.00;;;;10399108;28;45788;-62
2021/11/17 08:39:43;;;;;;;0.80;0.20;;;20.90;29.10;21.40;94336.00;;;;10397477;28;45188;-61
2021/11/17 08:44:44;;;;;;;0.55;0.30;;;20.90;29.10;21.40;94336.00;;;;10380510;28;47267;-62
2021/11/17 08:49:46;;;;;;;1.15;0.20;;;20.90;29.10;21.40;94340.00;;;;10420695;28;45573;-62
2021/11/17 08:54:46;;;;;;;0.75;0.10;;;20.90;29.30;21.40;94351.00;;;;10428612;28;45313;-61
2021/11/17 08:59:52;;;;;;;0.20;0.10;;;20.90;29.30;21.40;94351.00;;;;10437319;28;46010;-62
2021/11/17 09:04:52;;;;;;;0.20;0.20;;;20.90;29.30;21.40;94350.00;;;;10437736;28;45232;-62
2021/11/17 09:09:53;;;;;;;0.32;0.10;;;20.90;29.20;21.50;94360.00;;;;10440180;28;45414;-63
2021/11/17 09:14:54;;;;;;;0.63;0.10;;;20.90;29.50;21.40;94357.00;;;;10439192;28;45295;-63
2021/11/17 09:19:56;;;;;;;0.35;0.25;;;20.90;29.70;21.50;94361.00;;;;10437673;28;45275;-62
2021/11/17 09:24:58;;;;;;;1.00;0.22;;;20.90;29.70;21.40;94355.00;;;;10413142;28;45550;-63
2021/11/17 09:30:00;;;;;;;0.22;0.22;;;20.90;28.90;21.30;94364.00;;;;10378458;28;47159;-63
2021/11/17 09:35:11;;;;;;;0.75;0.20;;;20.90;28.40;21.40;94380.00;;;;10395391;28;46110;-61
2021/11/17 09:40:25;;;;;;;1.75;0.20;;;20.90;28.90;21.40;94369.00;;;;10395150;28;46011;-63
2021/11/17 09:45:28;;;;;;;0.70;0.22;;;20.90;29.00;21.40;94400.00;;;;10396386;28;45233;-60
2021/11/17 09:50:51;;;;;;;0.47;0.17;;;20.90;29.00;21.50;94394.00;;;;10423997;28;46517;-60
2021/11/17 09:56:02;;;;;;;0.38;0.30;;;21.00;29.10;21.50;94397.00;;;;10431511;28;45319;-60
2021/11/17 10:01:44;;;;;;;0.47;0.30;;;21.00;29.20;21.50;94408.00;;;;10437679;28;46502;-62
2021/11/17 10:17:53;;;;;;;1.95;1.05;;;21.10;29.60;21.60;94390.00;;;;10436376;28;45103;-62
2021/11/17 10:23:16;;;;;;;4.15;1.10;;;21.20;29.70;21.60;94375.00;;;;10435474;28;46109;-63
2021/11/17 10:28:41;;;;;;;1.88;0.88;;;21.20;29.90;21.70;94383.00;;;;10435432;28;46959;-62
2021/11/17 10:34:15;;;;;;;0.98;0.60;;;21.20;29.90;21.60;94389.00;;;;10435380;28;45484;-63
2021/11/17 10:39:25;;;;;;;1.00;0.70;;;21.20;29.20;21.50;94380.00;;;;10436147;28;45591;-62
2021/11/17 10:44:59;;;;;;;3.03;0.65;;;21.10;28.90;21.50;94376.00;;;;10435254;28;47039;-62
2021/11/17 10:50:32;;;;;;;12.20;5.05;;;21.10;29.30;21.60;94384.00;;;;10434022;28;48422;-62
2021/11/17 10:55:49;;;;;;;12.15;4.03;;;21.10;29.50;21.40;94385.00;;;;10427382;28;45172;-62
2021/11/17 11:01:03;;;;;;;;;;;21.00;29.30;21.50;94385.00;;;;10434386;28;47125;-62
2021/11/17 11:06:37;;;;;;;5.70;2.30;;;21.00;29.40;21.40;94389.00;;;;10434476;28;45327;-63
2021/11/17 11:11:49;;;;;;;10.00;3.50;;;21.00;29.50;21.50;94385.00;;;;10434563;28;45713;-62
2021/11/17 11:17:36;;;;;;;10.52;3.00;;;21.00;29.50;21.50;94372.00;;;;10511009;28;45333;-61
2021/11/17 11:23:06;;;;;;;8.38;2.15;;;21.00;29.50;21.70;94379.00;;;;10467925;28;45529;-61
2021/11/17 11:28:22;;;;;;;6.85;2.65;;;21.10;29.40;21.70;94388.00;;;;10468208;28;45168;-61
2021/11/17 11:33:24;;;;;;;7.00;2.25;;;21.20;29.50;21.80;94380.00;;;;10468934;28;45321;-62
2021/11/17 11:38:37;;;;;;;6.03;2.30;;;21.30;29.60;21.90;94371.00;;;;10466961;28;47356;-61
2021/11/17 11:43:41;;;;;;;4.57;1.95;;;21.30;29.70;21.90;94349.00;;;;10483813;28;47468;-62
2021/11/17 11:48:56;;;;;;;4.10;1.67;;;21.40;29.80;21.90;94364.00;;;;10481334;28;45364;-62
2021/11/17 11:54:24;;;;;;;4.70;1.63;;;21.40;29.90;22.00;94352.00;;;;10499474;28;45406;-62
2021/11/17 11:59:29;;;;;;;3.15;1.35;;;21.40;29.90;22.00;94352.00;;;;10448356;28;47959;-62
2021/11/17 12:04:30;;;;;;;3.72;1.30;;;21.40;29.80;22.00;94367.00;;;;10465293;28;46061;-61
2021/11/17 12:09:50;;;;;;;2.90;1.00;;;21.50;29.80;22.00;94360.00;;;;10465889;28;45609;-62
2021/11/17 12:15:33;;;;;;;3.30;1.27;;;21.50;29.90;22.10;94364.00;;;;10490352;22;45589;-61
2021/11/17 12:20:41;;;;;;;2.40;0.98;;;21.50;30.00;22.00;94369.00;;;;10464232;28;45169;-60
2021/11/17 12:25:55;;;;;;;2.78;0.85;;;21.50;30.10;21.80;94344.00;;;;10416200;28;45455;-60
2021/11/17 12:31:09;;;;;;;3.35;0.80;;;21.40;30.00;21.80;94358.00;;;;10371376;28;46002;-61
2021/11/17 12:36:16;;;;;;;1.98;0.50;;;21.40;30.40;21.70;94355.00;;;;10403119;28;47919;-61
2021/11/17 12:41:19;;;;;;;;;;;21.30;29.50;21.80;94356.00;;;;10438062;28;45148;-60
2021/11/17 12:46:25;;;;;;;2.10;0.60;;;21.30;29.80;21.90;94358.00;;;;10436958;28;45163;-60
2021/11/17 12:51:32;;;;;;;0.80;0.40;;;21.40;29.80;22.00;94365.00;;;;10437356;28;45307;-60
2021/11/17 12:56:55;;;;;;;1.58;0.50;;;21.50;29.80;22.10;94363.00;;;;10419095;28;45426;-61
2021/11/17 13:02:06;;;;;;;1.00;0.50;;;21.50;29.80;22.10;94364.00;;;;10419727;28;45229;-60
2021/11/17 13:07:12;;;;;;;1.83;0.40;;;21.60;29.80;22.10;94382.00;;;;10418850;28;45326;-60
2021/11/17 13:12:20;;;;;;;0.50;0.40;;;21.60;29.80;22.20;94369.00;;;;10436774;28;45137;-60
2021/11/17 13:17:32;;;;;;;1.30;0.40;;;21.60;29.80;22.20;94381.00;;;;10418238;28;45384;-61
2021/11/17 13:22:39;;;;;;;1.30;0.50;;;21.70;29.90;22.20;94389.00;;;;10424806;28;45446;-59
2021/11/17 13:28:03;;;;;;;0.85;0.43;;;21.70;29.90;22.20;94390.00;;;;10376910;28;45601;-61
2021/11/17 13:33:28;;;;;;;1.00;0.43;;;21.70;29.90;22.30;94380.00;;;;10395268;28;45162;-60
2021/11/17 13:38:28;;;;;;;0.95;0.30;;;21.70;29.90;22.30;94386.00;;;;10393516;28;45452;-59
2021/11/17 13:43:30;;;;;;;1.13;0.40;;;21.80;29.90;22.30;94383.00;;;;10394167;28;46031;-60
2021/11/17 13:48:36;;;;;;;2.17;0.50;;;21.80;29.90;22.30;94392.00;;;;10388454;28;45466;-60
2021/11/17 13:53:37;;;;;;;2.30;0.43;;;21.80;29.90;22.30;94398.00;;;;10417042;28;46070;-61
2021/11/17 13:58:38;;;;;;;0.90;0.25;;;21.80;29.90;22.30;94391.00;;;;10417281;28;46098;-60
2021/11/17 14:03:39;;;;;;;0.60;0.30;;;21.80;30.40;22.40;94400.00;;;;10434597;28;45166;-60
2021/11/17 14:08:40;;;;;;;1.38;0.30;;;21.80;29.80;22.40;94376.00;;;;10416649;28;47804;-60
2021/11/17 14:13:42;;;;;;;0.70;0.32;;;21.80;29.90;22.40;94399.00;;;;10416710;28;45261;-61
2021/11/17 14:18:43;;;;;;;0.85;0.40;;;21.80;29.90;22.40;94390.00;;;;10416427;28;46691;-59
2021/11/17 14:23:43;;;;;;;0.40;0.30;;;21.90;29.80;22.50;94403.00;;;;10395062;28;47002;-60
2021/11/17 14:29:04;;;;;;;0.50;0.28;;;21.90;29.90;22.50;94425.00;;;;10374917;28;45892;-60
2021/11/17 14:34:07;;;;;;;0.55;0.25;;;21.90;29.90;22.50;94419.00;;;;10375081;28;45238;-61
2021/11/17 14:39:08;;;;;;;0.50;0.30;;;22.00;29.90;22.50;94421.00;;;;10374901;28;46072;-61
2021/11/17 14:44:09;;;;;;;0.57;0.40;;;22.00;29.80;22.50;94415.00;;;;10392763;28;45271;-60
2021/11/17 14:49:11;;;;;;;0.52;0.20;;;22.00;29.90;22.50;94421.00;;;;10409504;28;45594;-60
2021/11/17 14:54:12;;;;;;;0.60;0.50;;;22.00;29.90;22.50;94421.00;;;;10415457;28;45200;-60
2021/11/17 14:59:13;;;;;;;0.35;0.30;;;22.00;29.90;22.50;94428.00;;;;10415815;28;45199;-60
2021/11/17 15:04:14;;;;;;;0.52;0.30;;;22.00;29.80;22.50;94425.00;;;;10398758;28;47213;-61
2021/11/17 15:09:15;;;;;;;0.47;0.20;;;22.00;29.80;22.50;94424.00;;;;10398847;28;47614;-60
2021/11/17 15:14:17;;;;;;;1.33;0.30;;;22.00;29.80;22.60;94452.00;;;;10415274;28;46289;-59
2021/11/17 15:19:18;;;;;;;0.20;0.10;;;22.00;29.80;22.60;94437.00;;;;10415159;28;45381;-62
2021/11/17 15:24:19;;;;;;;0.40;0.28;;;22.00;29.80;22.60;94443.00;;;;10406878;28;45505;-60
2021/11/17 15:29:20;;;;;;;0.55;0.20;;;22.00;29.80;22.60;94432.00;;;;10373697;28;46048;-61
2021/11/17 15:34:21;;;;;;;0.60;0.22;;;22.00;29.80;22.60;94439.00;;;;10373108;28;47184;-61
2021/11/17 15:39:22;;;;;;;0.22;0.20;;;22.00;29.80;22.60;94454.00;;;;10373721;28;46322;-61
2021/11/17 15:44:22;;;;;;;0.47;0.15;;;22.00;29.80;22.60;94476.00;;;;10373152;28;45522;-61
2021/11/17 15:49:25;;;;;;;0.20;0.20;;;22.00;29.80;22.60;94477.00;;;;10392873;28;46563;-61
2021/11/17 15:54:26;;;;;;;0.30;0.10;;;22.00;29.80;22.60;94466.00;;;;10413852;28;45260;-60
2021/11/17 15:59:27;;;;;;;0.32;0.20;;;22.10;29.90;22.60;94462.00;;;;10415037;28;45441;-61
2021/11/17 16:04:30;;;;;;;0.52;0.20;;;22.00;29.80;22.60;94491.00;;;;10439380;28;45367;-62
2021/11/17 16:09:43;;;;;;;0.35;0.10;;;22.00;29.80;22.60;94499.00;;;;10420842;28;45277;-61
2021/11/17 16:14:44;;;;;;;0.60;0.30;;;22.00;29.80;22.60;94491.00;;;;10420341;28;45442;-60
2021/11/17 16:19:51;;;;;;;0.25;0.17;;;22.00;29.80;22.60;94512.00;;;;10438626;28;45276;-61
2021/11/17 16:30:18;;;;;;;0.30;0.10;;;22.10;29.80;22.60;94517.00;;;;10380950;28;45066;-60
2021/11/17 16:35:22;;;;;;;0.85;0.28;;;22.10;29.90;22.60;94530.00;;;;10377221;28;45463;-59
2021/11/17 16:40:28;;;;;;;0.60;0.60;;;22.00;29.60;22.30;94532.00;;;;10373437;28;45228;-59
2021/11/17 16:45:30;;;;;;;2.13;0.60;;;21.90;27.70;22.10;94533.00;;;;10378298;28;47590;-63
2021/11/17 16:50:32;;;;;;;0.80;0.50;;;21.80;27.70;22.10;94541.00;;;;10401370;28;46708;-60
2021/11/17 16:55:36;;;;;;;1.05;0.50;;;21.70;28.50;22.10;94558.00;;;;10398826;28;45189;-62
2021/11/17 17:00:45;;;;;;;0.75;0.70;;;21.70;28.80;22.20;94571.00;;;;10400161;28;46350;-62
2021/11/17 17:05:49;;;;;;;0.68;0.60;;;21.70;28.80;22.20;94553.00;;;;10377708;28;45344;-59
2021/11/17 17:10:51;;;;;;;1.70;1.50;;;21.70;29.10;22.10;94574.00;;;;10367636;28;45561;-60
2021/11/17 17:15:52;;;;;;;1.73;1.30;;;21.60;28.00;22.10;94591.00;;;;10374801;28;46421;-61
2021/11/17 17:20:58;;;;;;;1.52;1.10;;;21.60;28.50;22.10;94598.00;;;;10375810;28;45255;-61
2021/11/17 17:25:59;;;;;;;1.58;1.10;;;21.60;28.70;22.10;94580.00;;;;10375455;28;45471;-61
2021/11/17 17:31:05;;;;;;;1.90;1.30;;;21.60;28.90;22.10;94583.00;;;;10376590;28;45905;-60
2021/11/17 17:36:08;;;;;;;1.80;1.33;;;21.60;28.90;22.00;94591.00;;;;10375748;28;47129;-60
2021/11/17 17:41:12;;;;;;;2.75;1.23;;;21.60;28.90;22.00;94607.00;;;;10376182;28;46110;-60
2021/11/17 17:46:16;;;;;;;2.63;1.30;;;21.50;29.00;22.00;94606.00;;;;10375562;28;45420;-60
2021/11/17 17:51:17;;;;;;;1.58;1.10;;;21.50;29.00;22.00;94601.00;;;;10410870;28;45198;-60
2021/11/17 17:56:18;;;;;;;1.45;1.05;;;21.40;29.00;21.90;94603.00;;;;10416728;28;45307;-60
2021/11/17 18:01:19;;;;;;;1.95;1.50;;;21.40;29.00;21.90;94603.00;;;;10417317;28;45974;-60
2021/11/17 18:06:20;;;;;;;2.35;1.40;;;21.40;28.90;21.90;94607.00;;;;10416940;28;45201;-60
2021/11/17 18:11:23;;;;;;;3.28;1.38;;;21.40;29.00;21.90;94611.00;;;;10417584;28;45802;-61
2021/11/17 18:16:24;;;;;;;3.45;1.30;;;21.40;29.10;21.90;94610.00;;;;10416051;28;45307;-61
2021/11/17 18:21:27;;;;;;;1.80;1.40;;;21.40;29.10;21.80;94606.00;;;;10432407;28;45215;-60
2021/11/17 18:26:40;;;;;;;2.03;1.58;;;21.40;29.20;21.80;94617.00;;;;10357948;28;47128;-60
2021/11/17 18:31:41;;;;;;;1.75;1.35;;;21.30;29.10;21.80;94623.00;;;;10359398;28;48188;-61
2021/11/17 18:36:45;;;;;;;2.78;1.30;;;21.30;29.10;21.80;94637.00;;;;10374924;28;45241;-61
2021/11/17 18:42:07;;;;;;;2.17;1.50;;;21.30;29.20;21.80;94631.00;;;;10358447;28;47112;-60
2021/11/17 18:47:08;;;;;;;2.22;1.60;;;21.30;29.20;21.90;94647.00;;;;10392982;28;46152;-60
2021/11/17 18:52:09;;;;;;;2.58;1.90;;;21.30;29.30;21.90;94631.00;;;;10433848;28;45131;-60
2021/11/17 18:57:10;;;;;;;3.42;2.33;;;21.30;29.30;21.80;94634.00;;;;10415513;28;45156;-60
2021/11/17 19:02:37;;;;;;;4.18;2.58;;;21.30;29.30;21.80;94648.00;;;;10415532;28;45304;-60
2021/11/17 19:07:39;;;;;;;4.53;2.60;;;21.30;29.30;21.80;94643.00;;;;10415450;28;46205;-60
2021/11/17 19:12:39;;;;;;;4.78;2.80;;;21.30;29.40;21.80;94639.00;;;;10415257;28;45199;-60
2021/11/17 19:17:40;;;;;;;3.30;2.30;;;21.30;29.30;21.80;94636.00;;;;10414742;28;48232;-61
2021/11/17 19:22:48;;;;;;;3.65;2.08;;;21.30;29.30;21.80;94643.00;;;;10402052;28;45309;-60
2021/11/17 19:27:52;;;;;;;3.67;2.25;;;21.30;29.30;21.80;94636.00;;;;10373961;28;45421;-60
2021/11/17 19:32:54;;;;;;;3.10;2.00;;;21.30;29.30;21.80;94627.00;;;;10373419;28;45616;-60
2021/11/17 19:37:55;;;;;;;4.78;1.70;;;21.30;29.40;21.80;94638.00;;;;10396796;28;45985;-61
2021/11/17 19:42:56;;;;;;;3.47;1.67;;;21.30;29.40;21.80;94656.00;;;;10380647;28;45307;-60
2021/11/17 19:47:57;;;;;;;2.60;1.45;;;21.30;29.30;21.80;94658.00;;;;10387902;28;45417;-60
2021/11/17 19:52:59;;;;;;;2.20;1.50;;;21.30;29.40;21.80;94679.00;;;;10439315;28;45357;-61
2021/11/17 19:57:59;;;;;;;1.70;1.30;;;21.30;29.40;21.80;94671.00;;;;10438886;28;45206;-60
2021/11/17 20:03:00;;;;;;;2.03;1.67;;;21.30;29.40;21.80;94675.00;;;;10439347;28;45187;-60
2021/11/17 20:08:01;;;;;;;2.20;1.50;;;21.30;29.40;21.80;94683.00;;;;10439159;28;45124;-60
2021/11/17 20:13:01;;;;;;;3.38;1.60;;;21.30;29.40;21.80;94700.00;;;;10420603;28;45176;-60
2021/11/17 20:18:02;;;;;;;2.63;1.60;;;21.30;29.50;21.80;94709.00;;;;10420685;28;45245;-61
2021/11/17 20:23:03;;;;;;;2.45;1.50;;;21.30;29.40;21.80;94721.00;;;;10404474;28;46650;-60
2021/11/17 20:28:06;;;;;;;4.32;1.40;;;21.30;29.50;21.80;94727.00;;;;10396749;28;45568;-60
2021/11/17 20:33:07;;;;;;;2.67;1.30;;;21.30;29.50;21.80;94718.00;;;;10379232;28;46005;-60
2021/11/17 20:38:08;;;;;;;2.17;1.10;;;21.30;29.50;21.80;94742.00;;;;10362029;28;47328;-60
2021/11/17 20:43:10;;;;;;;1.75;1.30;;;21.30;29.50;21.80;94768.00;;;;10378659;28;45204;-61
2021/11/17 20:48:17;;;;;;;1.60;1.20;;;21.30;29.70;21.80;94758.00;;;;10387497;28;45343;-61
2021/11/17 20:53:20;;;;;;;3.30;1.23;;;21.30;29.80;21.80;94757.00;;;;10419922;28;46257;-60
2021/11/17 20:58:21;;;;;;;2.10;1.30;;;21.30;29.90;21.90;94786.00;;;;10419199;28;46110;-60
2021/11/17 21:03:23;;;;;;;1.77;1.27;;;21.30;30.00;21.90;94797.00;;;;10437325;28;45385;-60
2021/11/17 21:08:23;;;;;;;1.85;1.25;;;21.30;30.00;21.90;94802.00;;;;10418640;28;45467;-61
2021/11/17 21:13:25;;;;;;;2.30;1.30;;;21.30;30.00;21.90;94794.00;;;;10436813;28;45194;-60
2021/11/17 21:18:26;;;;;;;2.33;1.38;;;21.30;30.10;21.80;94789.00;;;;10418534;28;45658;-61
2021/11/17 21:23:27;;;;;;;2.08;1.20;;;21.30;30.20;21.80;94805.00;;;;10399175;28;45170;-60
2021/11/17 21:28:30;;;;;;;2.20;1.27;;;21.30;30.20;21.80;94807.00;;;;10376912;28;45175;-60
2021/11/17 21:33:31;;;;;;;1.42;1.10;;;21.30;30.30;21.80;94805.00;;;;10393531;28;46219;-61
2021/11/17 21:38:31;;;;;;;1.90;1.25;;;21.30;30.40;21.80;94813.00;;;;10376377;28;45143;-61
2021/11/17 21:43:33;;;;;;;1.77;1.00;;;21.30;30.50;21.70;94824.00;;;;10375840;28;45442;-60
2021/11/17 21:48:34;;;;;;;1.77;1.10;;;21.20;30.50;21.70;94824.00;;;;10388613;28;45427;-60
2021/11/17 21:53:35;;;;;;;1.77;1.00;;;21.20;30.50;21.70;94825.00;;;;10417088;28;45240;-61
2021/11/17 21:58:37;;;;;;;1.73;1.08;;;21.20;30.70;21.70;94821.00;;;;10395393;28;47181;-61
2021/11/17 22:03:39;;;;;;;4.40;1.10;;;21.20;30.70;21.70;94822.00;;;;10432095;28;46078;-61
2021/11/17 22:08:40;;;;;;;1.15;1.00;;;21.10;30.70;21.70;94810.00;;;;10435058;28;45547;-62
2021/11/17 22:13:40;;;;;;;1.58;1.02;;;21.10;30.70;21.60;94831.00;;;;10434462;28;45402;-61
2021/11/17 22:18:42;;;;;;;1.30;0.90;;;21.10;30.80;21.60;94829.00;;;;10417042;28;46228;-61
2021/11/17 22:23:44;;;;;;;1.63;1.00;;;21.10;30.80;21.60;94824.00;;;;10395597;28;45920;-61
2021/11/17 22:28:49;;;;;;;1.10;0.90;;;21.10;30.90;21.60;94831.00;;;;10375275;28;45216;-61
2021/11/17 22:33:52;;;;;;;2.08;1.17;;;21.10;30.90;21.50;94833.00;;;;10374979;28;45325;-61
2021/11/17 22:38:53;;;;;;;1.00;0.90;;;21.00;30.90;21.50;94854.00;;;;10374837;28;46230;-62
2021/11/17 22:43:55;;;;;;;3.05;1.20;;;21.00;30.90;21.50;94852.00;;;;10392974;28;45145;-61
2021/11/17 22:48:58;;;;;;;1.30;0.80;;;21.00;31.00;21.50;94854.00;;;;10390809;28;45179;-61
2021/11/17 22:53:59;;;;;;;1.25;0.80;;;21.00;31.00;21.50;94855.00;;;;10416004;28;46052;-61
2021/11/17 22:59:00;;;;;;;1.73;0.70;;;20.90;31.00;21.50;94854.00;;;;10433409;28;45849;-61
2021/11/17 23:04:02;;;;;;;1.30;0.90;;;20.90;31.00;21.50;94864.00;;;;10415210;28;45161;-61
2021/11/17 23:09:05;;;;;;;1.15;0.70;;;20.90;31.00;21.50;94857.00;;;;10415104;28;46613;-61
2021/11/17 23:14:10;;;;;;;1.00;0.80;;;20.90;31.00;21.40;94868.00;;;;10414463;28;45602;-63
2021/11/17 23:19:12;;;;;;;1.17;1.00;;;20.90;31.00;21.40;94872.00;;;;10415284;28;45200;-61
2021/11/17 23:24:18;;;;;;;1.33;0.80;;;20.90;31.00;21.40;94876.00;;;;10389935;28;45206;-61
2021/11/17 23:29:19;;;;;;;1.10;0.90;;;20.90;31.00;21.40;94864.00;;;;10357256;28;47378;-61
2021/11/17 23:34:25;;;;;;;1.13;0.90;;;20.90;31.10;21.40;94857.00;;;;10373351;28;46178;-61
2021/11/17 23:39:26;;;;;;;1.35;0.70;;;20.90;31.00;21.40;94841.00;;;;10373620;28;45428;-61
2021/11/17 23:44:27;;;;;;;0.90;0.80;;;20.90;31.10;21.40;94850.00;;;;10373148;28;48166;-60
2021/11/17 23:49:28;;;;;;;0.70;0.63;;;20.80;31.10;21.40;94854.00;;;;10393215;28;45444;-61
2021/11/17 23:54:30;;;;;;;1.50;0.82;;;20.80;31.10;21.40;94830.00;;;;10413885;28;47480;-61
2021/11/17 23:59:31;;;;;;;0.88;0.70;;;20.90;31.20;21.40;94841.00;;;;10432123;28;45237;-61
